Time;durP1;ratioP1;P1;durP2;ratioP2;P2;SDS_P1;SDS_P2;PMS_P1;PMS_P2;Temp;Humidity;BMP_temperature;BMP_pressure;BME280_temperature;BME280_humidity;BME280_pressure;Samples;Min_cycle;Max_cycle;Signal;HPM_P1;HPM_P2
2021/08/07 00:00:06;;;;;;;9.40;2.92;;;22.50;99.90;;;;;;4880831;29;20257;-78
2021/08/07 00:02:31;;;;;;;13.60;3.60;;;22.50;99.90;;;;;;4881920;29;20087;-78
2021/08/07 00:04:57;;;;;;;14.77;3.33;;;22.50;99.90;;;;;;4880604;29;20057;-81
2021/08/07 00:07:26;;;;;;;16.80;3.53;;;22.40;99.90;;;;;;4880725;29;20428;-82
2021/08/07 00:09:52;;;;;;;11.80;3.67;;;22.30;99.90;;;;;;4880133;29;20463;-82
2021/08/07 00:12:18;;;;;;;12.02;4.13;;;22.20;99.90;;;;;;4880137;29;20021;-81
2021/08/07 00:14:43;;;;;;;14.25;3.85;;;22.20;99.90;;;;;;4880254;29;20082;-82
2021/08/07 00:17:09;;;;;;;8.82;3.67;;;22.20;99.90;;;;;;4880214;29;20117;-78
2021/08/07 00:19:36;;;;;;;11.82;3.90;;;22.20;99.90;;;;;;4880065;29;20041;-80
2021/08/07 00:22:03;;;;;;;12.80;3.80;;;22.20;99.90;;;;;;4879827;29;20092;-78
2021/08/07 00:24:29;;;;;;;10.48;4.15;;;22.10;99.90;;;;;;4880353;29;20037;-82
2021/08/07 00:26:54;;;;;;;18.92;3.60;;;22.20;99.90;;;;;;4880187;29;20115;-82
2021/08/07 00:29:20;;;;;;;7.47;3.00;;;22.10;99.90;;;;;;4879964;29;20093;-78
2021/08/07 00:31:46;;;;;;;9.65;3.22;;;22.10;99.90;;;;;;4879661;29;20041;-78
2021/08/07 00:34:11;;;;;;;11.65;3.95;;;22.10;99.90;;;;;;4880106;29;20513;-82
2021/08/07 00:36:37;;;;;;;10.95;3.38;;;22.10;99.90;;;;;;4880046;29;20493;-78
2021/08/07 00:39:03;;;;;;;6.82;3.08;;;22.00;99.90;;;;;;4879646;29;20026;-79
2021/08/07 00:41:28;;;;;;;13.90;3.80;;;22.00;99.90;;;;;;4879757;29;20037;-81
2021/08/07 00:43:54;;;;;;;12.90;3.72;;;22.00;99.90;;;;;;4879534;29;20043;-82
2021/08/07 00:46:19;;;;;;;13.55;3.80;;;22.00;99.90;;;;;;4879294;29;20075;-79
2021/08/07 00:48:45;;;;;;;10.20;3.40;;;21.90;99.90;;;;;;4879840;29;20037;-80
2021/08/07 00:51:11;;;;;;;14.23;3.83;;;21.90;99.90;;;;;;4878698;29;20021;-80
2021/08/07 00:53:38;;;;;;;10.60;4.18;;;21.80;99.90;;;;;;4879538;29;20052;-82
2021/08/07 00:56:04;;;;;;;13.45;4.20;;;21.80;99.90;;;;;;4879586;29;20407;-81
2021/08/07 00:58:30;;;;;;;9.30;3.97;;;21.80;99.90;;;;;;4879435;29;20033;-80
2021/08/07 01:00:55;;;;;;;9.52;3.80;;;21.70;99.90;;;;;;4879389;29;20045;-81
2021/08/07 01:03:32;;;;;;;17.35;3.78;;;21.60;99.90;;;;;;4879266;29;20093;-82
2021/08/07 01:06:09;;;;;;;10.90;4.05;;;21.60;99.90;;;;;;4878096;29;20041;-78
2021/08/07 01:08:39;;;;;;;13.32;4.53;;;21.60;99.90;;;;;;4879274;29;20044;-81
2021/08/07 01:11:16;;;;;;;9.98;3.65;;;21.60;99.90;;;;;;4879554;29;20036;-79
2021/08/07 01:13:47;;;;;;;15.73;3.53;;;21.70;99.90;;;;;;4879254;29;20061;-76
2021/08/07 01:16:21;;;;;;;12.07;3.85;;;21.70;99.90;;;;;;4879232;29;20462;-77
2021/08/07 01:18:48;;;;;;;11.23;4.20;;;21.70;99.90;;;;;;4879091;29;20033;-80
2021/08/07 01:21:17;;;;;;;13.15;3.63;;;21.60;99.90;;;;;;4879068;29;20116;-80
2021/08/07 01:23:51;;;;;;;12.48;4.05;;;21.60;99.90;;;;;;4878933;29;20059;-77
2021/08/07 01:26:33;;;;;;;14.43;4.20;;;21.60;99.90;;;;;;4879151;29;20033;-78
2021/08/07 01:29:00;;;;;;;12.45;4.32;;;21.60;99.90;;;;;;4879199;29;20033;-78
2021/08/07 01:31:27;;;;;;;13.25;4.15;;;21.60;99.90;;;;;;4879181;29;20045;-78
2021/08/07 01:33:54;;;;;;;11.57;3.97;;;21.50;99.90;;;;;;4878536;29;20443;-76
2021/08/07 01:36:20;;;;;;;9.70;3.50;;;21.60;99.90;;;;;;4878917;29;20029;-78
2021/08/07 01:38:46;;;;;;;13.98;4.63;;;21.60;99.90;;;;;;4879172;29;20124;-78
2021/08/07 01:41:22;;;;;;;12.30;4.55;;;21.60;99.90;;;;;;4879115;29;20065;-78
2021/08/07 01:43:49;;;;;;;14.55;4.15;;;21.60;99.90;;;;;;4892677;29;20096;-77
2021/08/07 01:46:17;;;;;;;11.20;4.22;;;21.60;99.90;;;;;;4877123;29;20045;-77
2021/08/07 01:49:02;;;;;;;10.48;4.05;;;21.60;99.90;;;;;;4877782;29;20049;-77
2021/08/07 01:51:48;;;;;;;17.13;4.13;;;21.60;99.90;;;;;;4877550;29;20068;-77
2021/08/07 01:54:16;;;;;;;12.10;3.72;;;21.70;99.90;;;;;;4876322;29;20450;-77
2021/08/07 01:56:45;;;;;;;9.68;3.88;;;21.70;99.90;;;;;;4877593;29;20185;-80
2021/08/07 01:59:20;;;;;;;10.73;4.72;;;21.70;99.90;;;;;;4878413;29;20037;-80
2021/08/07 02:01:48;;;;;;;14.25;4.10;;;21.80;99.90;;;;;;4879724;29;20057;-77
2021/08/07 02:04:15;;;;;;;16.67;4.53;;;21.80;99.90;;;;;;4883036;29;20044;-77
2021/08/07 02:06:43;;;;;;;9.23;3.53;;;21.80;99.90;;;;;;4882806;29;20121;-78
2021/08/07 02:09:10;;;;;;;11.00;3.88;;;21.80;99.90;;;;;;4882679;29;20037;-80
2021/08/07 02:11:40;;;;;;;24.08;4.03;;;21.80;99.90;;;;;;4882530;29;20068;-80
2021/08/07 02:14:06;;;;;;;11.35;3.80;;;21.80;99.90;;;;;;4896837;29;20037;-78
2021/08/07 02:16:32;;;;;;;8.65;3.22;;;21.70;99.90;;;;;;4882548;29;20029;-79
2021/08/07 02:19:00;;;;;;;18.65;4.22;;;21.70;99.90;;;;;;4882382;29;20037;-79
2021/08/07 02:21:27;;;;;;;12.13;3.75;;;21.70;99.90;;;;;;4882593;29;20040;-77
2021/08/07 02:23:52;;;;;;;12.48;4.25;;;21.80;99.90;;;;;;4882321;29;20517;-79
2021/08/07 02:26:23;;;;;;;11.23;3.42;;;21.70;99.90;;;;;;4881184;29;20037;-80
2021/08/07 02:28:50;;;;;;;11.85;3.65;;;21.70;99.90;;;;;;4882245;29;20048;-78
2021/08/07 02:31:16;;;;;;;10.27;3.33;;;21.70;99.90;;;;;;4882212;29;20104;-79
2021/08/07 02:33:42;;;;;;;10.82;3.58;;;21.60;99.90;;;;;;4881862;29;20033;-80
2021/08/07 02:36:11;;;;;;;16.65;4.20;;;21.60;99.90;;;;;;4881952;29;20539;-80
2021/08/07 02:38:37;;;;;;;11.55;4.25;;;21.60;99.90;;;;;;4882003;29;20471;-79
2021/08/07 02:41:04;;;;;;;15.13;3.63;;;21.60;99.90;;;;;;4883049;29;20368;-77
2021/08/07 02:43:31;;;;;;;10.48;3.47;;;21.70;99.90;;;;;;4881870;29;20051;-77
2021/08/07 02:45:57;;;;;;;9.90;3.45;;;21.60;99.90;;;;;;4881769;29;20097;-79
2021/08/07 02:48:25;;;;;;;11.38;3.70;;;21.60;99.90;;;;;;4881954;29;20084;-80
2021/08/07 02:50:52;;;;;;;10.05;3.80;;;21.60;99.90;;;;;;4882119;29;20467;-80
2021/08/07 02:53:18;;;;;;;7.82;3.80;;;21.60;99.90;;;;;;4881744;29;20049;-78
2021/08/07 02:55:45;;;;;;;14.80;3.85;;;21.60;99.90;;;;;;4881917;29;20040;-77
2021/08/07 03:01:04;;;;;;;18.38;4.43;;;21.60;99.90;;;;;;4806224;23;20077;-81
2021/08/07 03:03:29;;;;;;;16.02;3.78;;;21.70;99.90;;;;;;4882664;29;20089;-83
2021/08/07 03:05:55;;;;;;;12.50;3.15;;;21.70;99.90;;;;;;4882432;29;20510;-81
2021/08/07 03:08:21;;;;;;;15.77;4.65;;;21.70;99.90;;;;;;4882281;29;20044;-82
2021/08/07 03:10:47;;;;;;;13.38;3.58;;;21.80;99.90;;;;;;4882314;29;20029;-81
2021/08/07 03:13:13;;;;;;;11.68;4.10;;;21.80;99.90;;;;;;4881437;29;20089;-80
2021/08/07 03:15:39;;;;;;;6.93;3.38;;;21.80;99.90;;;;;;4882264;29;20094;-80
2021/08/07 03:18:04;;;;;;;9.13;3.30;;;21.90;99.90;;;;;;4881997;29;20048;-82
2021/08/07 03:20:30;;;;;;;12.25;3.42;;;21.90;99.90;;;;;;4882111;29;20450;-80
2021/08/07 03:23:02;;;;;;;8.98;3.40;;;22.00;99.90;;;;;;4881977;29;20045;-80
2021/08/07 03:25:28;;;;;;;8.60;3.60;;;22.00;99.90;;;;;;4882105;29;20028;-83
2021/08/07 03:27:54;;;;;;;8.90;3.53;;;22.10;99.90;;;;;;4882076;29;20067;-80
2021/08/07 03:30:20;;;;;;;10.73;3.60;;;22.10;99.90;;;;;;4881952;29;20103;-79
2021/08/07 03:32:45;;;;;;;12.60;3.80;;;22.10;99.90;;;;;;4881778;29;20109;-82
2021/08/07 03:35:11;;;;;;;4.90;2.90;;;22.10;99.90;;;;;;4895986;29;20041;-82
2021/08/07 03:37:37;;;;;;;17.90;4.43;;;22.10;99.90;;;;;;4881658;29;20398;-79
2021/08/07 03:40:03;;;;;;;17.00;3.88;;;22.20;99.90;;;;;;4881501;29;20371;-82
2021/08/07 03:42:29;;;;;;;13.80;3.40;;;22.20;99.90;;;;;;4881785;29;20053;-81
2021/08/07 03:44:55;;;;;;;6.45;3.50;;;22.20;99.90;;;;;;4881371;29;20108;-80
2021/08/07 03:47:22;;;;;;;7.65;2.97;;;22.20;99.90;;;;;;4881525;29;20070;-82
2021/08/07 03:49:48;;;;;;;10.25;3.35;;;22.20;99.90;;;;;;4881954;29;20026;-80
2021/08/07 03:52:13;;;;;;;9.52;3.08;;;22.20;99.90;;;;;;4881481;29;20067;-84
2021/08/07 03:54:39;;;;;;;9.15;3.53;;;22.20;99.90;;;;;;4881593;29;20161;-81
2021/08/07 03:57:05;;;;;;;8.57;3.08;;;22.20;99.90;;;;;;4881465;29;20525;-81
2021/08/07 03:59:30;;;;;;;5.70;3.58;;;22.20;99.90;;;;;;4881816;29;20097;-80
2021/08/07 04:01:56;;;;;;;9.63;3.00;;;22.20;99.90;;;;;;4881831;29;20048;-80
2021/08/07 04:04:22;;;;;;;11.68;3.88;;;22.20;99.90;;;;;;4881324;29;20101;-81
2021/08/07 04:06:47;;;;;;;17.63;3.95;;;22.20;99.90;;;;;;4881491;29;20037;-82
2021/08/07 04:09:13;;;;;;;6.97;3.13;;;22.30;99.90;;;;;;4881002;29;20072;-81
2021/08/07 04:11:39;;;;;;;12.18;3.60;;;22.30;99.90;;;;;;4881081;29;20119;-83
2021/08/07 04:14:05;;;;;;;12.55;3.60;;;22.30;99.90;;;;;;4881112;29;20484;-78
2021/08/07 04:16:33;;;;;;;13.77;4.10;;;22.40;99.90;;;;;;4881159;29;20482;-81
2021/08/07 04:18:58;;;;;;;10.50;3.42;;;22.40;99.90;;;;;;4881004;29;20029;-80
2021/08/07 04:21:24;;;;;;;8.73;3.08;;;22.40;99.90;;;;;;4880914;29;20040;-79
2021/08/07 04:23:50;;;;;;;9.23;3.80;;;22.50;99.90;;;;;;4880990;29;20494;-81
2021/08/07 04:26:15;;;;;;;10.25;3.70;;;22.50;99.90;;;;;;4880043;29;20029;-81
2021/08/07 04:28:41;;;;;;;16.23;3.65;;;22.60;99.90;;;;;;4880692;29;20052;-79
2021/08/07 04:31:07;;;;;;;11.35;3.20;;;22.70;99.90;;;;;;4879545;29;20065;-83
2021/08/07 04:33:33;;;;;;;12.50;3.35;;;22.70;99.90;;;;;;4879143;29;20041;-81
2021/08/07 04:36:04;;;;;;;10.68;4.07;;;22.80;99.90;;;;;;4880502;29;20029;-82
2021/08/07 04:38:30;;;;;;;14.65;3.10;;;22.80;99.90;;;;;;4880754;29;20036;-82
2021/08/07 04:40:56;;;;;;;7.82;3.30;;;22.90;99.90;;;;;;4880440;29;20097;-80
2021/08/07 04:43:22;;;;;;;16.67;3.35;;;22.90;99.90;;;;;;4880328;29;20049;-80
2021/08/07 04:45:48;;;;;;;14.65;3.95;;;22.90;99.90;;;;;;4880339;29;20033;-83
2021/08/07 04:48:14;;;;;;;10.80;3.15;;;23.00;99.90;;;;;;4880340;29;20382;-80
2021/08/07 04:50:40;;;;;;;10.88;3.47;;;23.10;99.90;;;;;;4880420;29;20104;-80
2021/08/07 04:53:07;;;;;;;10.05;3.58;;;23.20;99.90;;;;;;4880491;29;20037;-80
2021/08/07 04:55:34;;;;;;;13.48;3.10;;;23.30;99.90;;;;;;4880055;29;20044;-79
2021/08/07 04:58:00;;;;;;;10.60;3.08;;;23.50;99.90;;;;;;4879135;29;20493;-80
2021/08/07 05:00:26;;;;;;;10.05;3.58;;;23.80;99.90;;;;;;4880194;29;20040;-79
2021/08/07 05:02:51;;;;;;;9.75;3.97;;;24.10;99.90;;;;;;4880151;29;20576;-80
2021/08/07 05:05:17;;;;;;;11.45;3.45;;;24.40;99.90;;;;;;4880153;29;20029;-81
2021/08/07 05:07:44;;;;;;;9.13;3.38;;;24.70;99.90;;;;;;4880264;29;20044;-81
2021/08/07 05:10:11;;;;;;;9.95;3.40;;;25.00;99.90;;;;;;4880153;29;20055;-81
2021/08/07 05:12:38;;;;;;;8.95;2.92;;;25.30;99.90;;;;;;4880223;29;20062;-80
2021/08/07 05:15:04;;;;;;;8.73;2.75;;;25.60;99.90;;;;;;4894135;29;20049;-80
2021/08/07 05:17:30;;;;;;;9.43;3.28;;;26.00;99.90;;;;;;4879832;29;20068;-82
2021/08/07 05:19:56;;;;;;;14.20;2.83;;;26.60;99.90;;;;;;4879891;29;20481;-84
2021/08/07 05:22:22;;;;;;;8.77;2.63;;;27.60;99.90;;;;;;4879957;29;20486;-80
2021/08/07 05:24:49;;;;;;;8.93;2.53;;;28.90;99.90;;;;;;4879740;29;20374;-80
2021/08/07 05:27:15;;;;;;;7.47;2.58;;;30.10;99.90;;;;;;4879845;29;20033;-79
2021/08/07 05:29:41;;;;;;;11.40;2.67;;;31.10;99.90;;;;;;4879738;29;20044;-82
2021/08/07 05:32:07;;;;;;;7.20;2.92;;;31.70;99.90;;;;;;4879916;29;20108;-81
2021/08/07 05:34:33;;;;;;;7.53;2.78;;;32.30;99.90;;;;;;4880130;29;20049;-81
2021/08/07 05:36:59;;;;;;;7.85;3.42;;;33.10;99.90;;;;;;4879388;29;20436;-83
2021/08/07 05:39:25;;;;;;;5.80;2.45;;;34.10;99.90;;;;;;4878178;29;20048;-82
2021/08/07 05:41:51;;;;;;;7.57;2.58;;;34.70;99.90;;;;;;4880247;29;20032;-80
2021/08/07 05:44:17;;;;;;;7.43;2.08;;;35.10;98.50;;;;;;4879590;29;20074;-82
2021/08/07 05:46:42;;;;;;;6.03;2.42;;;35.10;97.60;;;;;;4879572;29;20037;-82
2021/08/07 05:49:08;;;;;;;9.07;2.30;;;35.40;97.10;;;;;;4879579;29;20533;-82
2021/08/07 05:51:35;;;;;;;10.23;2.92;;;35.70;96.50;;;;;;4879732;29;20029;-82
2021/08/07 05:54:04;;;;;;;11.73;2.72;;;35.90;95.60;;;;;;4879698;29;20463;-81
2021/08/07 05:56:30;;;;;;;11.68;3.08;;;36.20;95.00;;;;;;4879324;29;20025;-80
2021/08/07 05:58:56;;;;;;;5.43;1.98;;;36.70;94.20;;;;;;4878227;29;20044;-81
2021/08/07 06:01:22;;;;;;;7.05;2.38;;;36.80;93.70;;;;;;4879330;29;20084;-79
2021/08/07 06:03:47;;;;;;;5.63;2.33;;;36.90;92.70;;;;;;4879537;29;20052;-84
2021/08/07 06:06:13;;;;;;;4.75;1.73;;;37.50;92.30;;;;;;4879625;29;20041;-81
2021/08/07 06:08:39;;;;;;;5.57;2.00;;;37.60;91.70;;;;;;4879316;29;20209;-81
2021/08/07 06:11:05;;;;;;;5.65;2.38;;;37.60;91.20;;;;;;4879349;29;20041;-81
2021/08/07 06:13:31;;;;;;;16.38;2.72;;;37.70;90.80;;;;;;4879446;29;20067;-82
2021/08/07 06:15:56;;;;;;;7.03;1.90;;;37.60;91.10;;;;;;4879580;29;20033;-83
2021/08/07 06:18:22;;;;;;;4.85;2.05;;;38.00;90.50;;;;;;4879395;29;20041;-79
2021/08/07 06:20:49;;;;;;;7.07;2.20;;;38.10;90.50;;;;;;4879461;29;20035;-79
2021/08/07 06:23:16;;;;;;;5.70;2.13;;;38.10;90.10;;;;;;4879213;29;20037;-82
2021/08/07 06:25:42;;;;;;;5.53;2.45;;;38.40;88.80;;;;;;4879120;29;20490;-78
2021/08/07 06:28:07;;;;;;;8.63;2.38;;;38.80;88.70;;;;;;4879107;29;20072;-81
2021/08/07 06:30:33;;;;;;;6.55;2.47;;;39.00;88.00;;;;;;4879188;29;20029;-81
2021/08/07 06:32:59;;;;;;;8.43;2.40;;;39.50;87.40;;;;;;4879314;29;20045;-78
2021/08/07 06:35:24;;;;;;;6.63;2.40;;;39.90;85.20;;;;;;4879359;29;20093;-79
2021/08/07 06:37:51;;;;;;;8.32;1.98;;;40.10;85.40;;;;;;4880701;29;20071;-77
2021/08/07 06:40:18;;;;;;;6.40;2.25;;;40.30;83.50;;;;;;4881687;29;20037;-78
2021/08/07 06:42:44;;;;;;;7.38;1.90;;;40.40;82.90;;;;;;4879097;29;20053;-79
2021/08/07 06:45:10;;;;;;;3.85;1.85;;;40.70;82.50;;;;;;4877758;29;20520;-78
2021/08/07 06:47:36;;;;;;;7.70;1.88;;;41.00;81.70;;;;;;4879338;29;20553;-81
2021/08/07 06:50:04;;;;;;;12.52;2.22;;;41.00;80.60;;;;;;4882333;29;20025;-78
2021/08/07 06:52:30;;;;;;;7.15;2.00;;;41.30;80.10;;;;;;4882321;29;20056;-78
2021/08/07 06:54:56;;;;;;;7.57;1.60;;;41.40;78.70;;;;;;4882359;29;20037;-77
2021/08/07 06:57:22;;;;;;;10.40;2.10;;;41.70;78.20;;;;;;4882316;29;20097;-80
2021/08/07 06:59:48;;;;;;;7.53;2.05;;;41.60;78.00;;;;;;4882466;29;20029;-82
2021/08/07 07:02:13;;;;;;;7.30;1.65;;;41.70;78.60;;;;;;4882219;29;20059;-82
2021/08/07 07:04:39;;;;;;;4.82;2.08;;;42.20;76.80;;;;;;4882492;29;20045;-80
2021/08/07 07:07:05;;;;;;;6.00;1.83;;;42.10;75.40;;;;;;4882001;29;20040;-82
2021/08/07 07:09:32;;;;;;;5.82;2.10;;;42.50;75.40;;;;;;4882018;29;20033;-81
2021/08/07 07:11:58;;;;;;;4.70;1.55;;;42.70;74.70;;;;;;4882224;29;20070;-82
2021/08/07 07:14:24;;;;;;;7.88;1.98;;;42.70;74.00;;;;;;4882263;29;20434;-82
2021/08/07 07:16:50;;;;;;;7.15;2.17;;;42.60;74.10;;;;;;4882201;29;20175;-82
2021/08/07 07:19:16;;;;;;;4.43;1.80;;;43.00;73.70;;;;;;4881862;29;20041;-80
2021/08/07 07:21:42;;;;;;;7.82;2.08;;;43.20;72.60;;;;;;4881885;29;20110;-79
2021/08/07 07:24:08;;;;;;;7.80;2.22;;;43.90;72.00;;;;;;4881935;29;20048;-80
2021/08/07 07:26:34;;;;;;;6.57;1.95;;;44.50;71.00;;;;;;4881962;29;20033;-80
2021/08/07 07:29:00;;;;;;;5.22;1.98;;;44.00;71.00;;;;;;4882142;29;20048;-78
2021/08/07 07:31:26;;;;;;;8.13;2.05;;;43.40;71.40;;;;;;4881927;29;20363;-81
2021/08/07 07:33:52;;;;;;;5.82;1.85;;;42.20;72.30;;;;;;4881944;29;20029;-80
2021/08/07 07:36:18;;;;;;;11.18;2.05;;;40.20;74.80;;;;;;4881371;29;20048;-80
2021/08/07 07:38:44;;;;;;;11.50;2.17;;;38.30;78.10;;;;;;4880898;29;20398;-79
2021/08/07 07:41:11;;;;;;;4.30;1.80;;;37.60;80.20;;;;;;4881631;29;20041;-78
2021/08/07 07:43:37;;;;;;;4.85;2.25;;;38.00;80.80;;;;;;4881363;29;20056;-80
2021/08/07 07:46:04;;;;;;;9.63;2.40;;;38.50;80.40;;;;;;4881200;29;20047;-80
2021/08/07 07:48:30;;;;;;;11.70;2.25;;;39.70;79.00;;;;;;4881383;29;20047;-79
2021/08/07 07:50:55;;;;;;;21.55;2.65;;;40.90;76.80;;;;;;4881272;29;20033;-78
2021/08/07 07:53:21;;;;;;;4.68;1.85;;;42.30;75.50;;;;;;4881165;29;20045;-78
2021/08/07 07:55:47;;;;;;;7.03;2.35;;;43.10;72.90;;;;;;4881348;29;20029;-79
2021/08/07 07:58:13;;;;;;;9.32;2.45;;;43.80;72.20;;;;;;4881193;29;20116;-81
2021/08/07 08:00:38;;;;;;;7.95;1.67;;;44.10;71.30;;;;;;4880966;29;20033;-80
2021/08/07 08:03:04;;;;;;;7.53;1.98;;;44.30;70.60;;;;;;4878128;29;20056;-79
2021/08/07 08:05:30;;;;;;;5.13;2.35;;;44.50;70.60;;;;;;4881005;29;20040;-79
2021/08/07 08:07:56;;;;;;;4.55;2.20;;;44.10;70.40;;;;;;4880850;29;20503;-81
2021/08/07 08:10:21;;;;;;;6.88;1.95;;;44.30;70.50;;;;;;4881532;29;20033;-79
2021/08/07 08:12:47;;;;;;;5.32;1.80;;;43.90;69.70;;;;;;4881077;29;20081;-80
2021/08/07 08:15:14;;;;;;;4.30;1.48;;;43.90;70.20;;;;;;4880977;29;20064;-82
2021/08/07 08:17:39;;;;;;;18.02;2.00;;;43.60;70.50;;;;;;4881172;29;20036;-81
2021/08/07 08:20:08;;;;;;;5.03;1.90;;;43.40;70.70;;;;;;4880981;29;20103;-80
2021/08/07 08:22:34;;;;;;;7.65;2.03;;;42.50;72.10;;;;;;4880753;29;20064;-80
2021/08/07 08:25:01;;;;;;;13.82;2.10;;;41.10;73.80;;;;;;4881171;29;20486;-80
2021/08/07 08:27:27;;;;;;;7.03;1.80;;;40.20;75.40;;;;;;4880644;29;20040;-80
2021/08/07 08:29:54;;;;;;;4.38;1.98;;;39.00;77.40;;;;;;4880047;29;20044;-82
2021/08/07 08:32:20;;;;;;;8.60;2.08;;;38.60;78.80;;;;;;4880429;29;20464;-83
2021/08/07 08:34:46;;;;;;;10.35;1.83;;;37.60;80.00;;;;;;4879127;29;20068;-81
2021/08/07 08:37:11;;;;;;;4.43;1.63;;;36.70;81.40;;;;;;4880951;29;20051;-81
2021/08/07 08:39:37;;;;;;;4.30;1.73;;;35.90;83.40;;;;;;4880590;29;20439;-79
2021/08/07 08:42:05;;;;;;;7.13;2.53;;;35.00;85.40;;;;;;4880279;29;20073;-82
2021/08/07 08:44:31;;;;;;;15.43;2.65;;;34.10;87.50;;;;;;4880253;29;20044;-81
2021/08/07 08:46:57;;;;;;;13.73;2.25;;;33.50;89.70;;;;;;4880544;29;20125;-79
2021/08/07 08:49:23;;;;;;;7.00;2.20;;;32.90;90.50;;;;;;4880309;29;20077;-81
2021/08/07 08:51:49;;;;;;;5.55;2.30;;;32.10;91.30;;;;;;4880315;29;20033;-81
2021/08/07 08:54:19;;;;;;;13.07;3.00;;;31.80;92.10;;;;;;4880278;29;20363;-81
2021/08/07 08:56:49;;;;;;;18.02;2.80;;;31.80;92.50;;;;;;4879987;29;20091;-81
2021/08/07 08:59:23;;;;;;;6.18;3.50;;;32.10;92.60;;;;;;4878975;29;20120;-78
2021/08/07 09:01:49;;;;;;;9.77;3.00;;;32.10;92.50;;;;;;4879904;29;20096;-79
2021/08/07 09:04:16;;;;;;;8.98;2.63;;;32.00;93.20;;;;;;4879951;29;20049;-81
2021/08/07 09:06:41;;;;;;;9.23;3.08;;;32.10;93.30;;;;;;4880064;29;20029;-78
2021/08/07 09:09:10;;;;;;;6.53;2.10;;;32.20;93.30;;;;;;4878663;29;20044;-78
2021/08/07 09:11:48;;;;;;;8.90;2.40;;;32.10;93.40;;;;;;4879665;29;20037;-81
2021/08/07 09:14:13;;;;;;;6.10;2.40;;;32.00;93.70;;;;;;4878655;29;20055;-83
2021/08/07 09:17:03;;;;;;;9.63;2.83;;;31.80;94.20;;;;;;4895868;29;20041;-81
2021/08/07 09:19:40;;;;;;;19.17;2.50;;;31.80;94.40;;;;;;4879814;29;20032;-77
2021/08/07 09:22:09;;;;;;;7.90;2.67;;;31.90;94.60;;;;;;4893944;29;20394;-79
2021/08/07 09:24:54;;;;;;;13.00;2.58;;;31.60;94.60;;;;;;4879560;29;20177;-80
2021/08/07 09:27:33;;;;;;;7.63;2.35;;;31.40;95.30;;;;;;4879814;29;20077;-82
2021/08/07 09:30:01;;;;;;;6.18;2.40;;;31.30;95.60;;;;;;4893670;29;20040;-82
2021/08/07 09:32:27;;;;;;;8.65;3.10;;;31.00;96.00;;;;;;4893701;29;20495;-80
2021/08/07 09:35:03;;;;;;;9.35;2.97;;;30.90;96.30;;;;;;4879642;29;20033;-82
2021/08/07 09:37:29;;;;;;;10.07;2.63;;;30.90;96.30;;;;;;4879785;29;20041;-80
2021/08/07 09:39:54;;;;;;;11.70;2.20;;;31.00;96.50;;;;;;4879796;29;20037;-77
2021/08/07 09:42:20;;;;;;;15.57;2.90;;;31.10;96.20;;;;;;4879840;29;20029;-78
2021/08/07 09:45:00;;;;;;;6.97;2.33;;;31.30;96.20;;;;;;4879714;29;20059;-78
2021/08/07 09:47:25;;;;;;;13.27;2.78;;;31.30;96.20;;;;;;4893883;29;20052;-82
2021/08/07 09:49:51;;;;;;;9.70;2.78;;;31.50;96.30;;;;;;4880103;29;20494;-80
2021/08/07 09:52:17;;;;;;;7.80;2.58;;;31.60;96.40;;;;;;4879777;29;20033;-81
2021/08/07 09:54:45;;;;;;;10.80;2.45;;;31.70;96.50;;;;;;4879598;29;20121;-83
2021/08/07 09:57:27;;;;;;;7.85;2.72;;;31.70;96.50;;;;;;4879647;29;20026;-77
2021/08/07 09:59:53;;;;;;;9.57;2.53;;;31.70;96.70;;;;;;4879308;29;20037;-77
2021/08/07 10:02:35;;;;;;;8.07;2.85;;;31.70;96.60;;;;;;4879347;29;20422;-84
2021/08/07 10:05:01;;;;;;;19.10;3.03;;;31.70;97.10;;;;;;4879888;29;20390;-80
2021/08/07 10:07:27;;;;;;;7.97;2.38;;;31.70;96.70;;;;;;4879452;29;20029;-81
2021/08/07 10:09:54;;;;;;;7.03;2.47;;;31.80;96.60;;;;;;4879596;29;20037;-81
2021/08/07 10:12:20;;;;;;;8.38;2.58;;;31.90;96.90;;;;;;4879587;29;20037;-81
2021/08/07 10:14:47;;;;;;;10.98;2.40;;;31.80;96.60;;;;;;4879071;29;20036;-80
2021/08/07 10:17:23;;;;;;;7.38;2.85;;;31.70;96.60;;;;;;4879306;29;20093;-81
2021/08/07 10:19:49;;;;;;;8.70;2.58;;;31.80;96.40;;;;;;4879575;29;20533;-83
2021/08/07 10:22:17;;;;;;;13.43;3.05;;;31.80;97.00;;;;;;4879314;29;20093;-78
2021/08/07 10:24:46;;;;;;;11.85;3.42;;;31.70;96.70;;;;;;4896442;29;20093;-84
2021/08/07 10:27:13;;;;;;;14.60;3.45;;;31.60;96.60;;;;;;4882726;29;20101;-82
2021/08/07 10:29:44;;;;;;;9.15;3.35;;;31.30;96.40;;;;;;4882250;29;20029;-83
2021/08/07 10:32:14;;;;;;;7.53;2.60;;;31.20;96.60;;;;;;4882260;29;20516;-81
2021/08/07 10:34:48;;;;;;;11.88;2.85;;;31.10;96.70;;;;;;4882788;29;20089;-78
2021/08/07 10:37:14;;;;;;;4.68;2.35;;;30.90;97.10;;;;;;4882686;29;20438;-79
2021/08/07 10:39:40;;;;;;;10.48;3.22;;;30.80;97.00;;;;;;4882824;29;20398;-84
2021/08/07 10:42:11;;;;;;;8.95;2.95;;;30.80;97.20;;;;;;4882744;29;20059;-79
2021/08/07 10:44:37;;;;;;;6.88;2.70;;;30.90;96.80;;;;;;4882419;29;20413;-78
2021/08/07 10:47:03;;;;;;;8.85;2.78;;;31.10;96.40;;;;;;4882683;29;20050;-79
2021/08/07 10:49:45;;;;;;;6.93;2.65;;;31.30;96.30;;;;;;4882796;29;20065;-78
2021/08/07 10:52:23;;;;;;;14.20;3.45;;;31.40;96.40;;;;;;4882542;29;20393;-80
2021/08/07 10:54:50;;;;;;;12.80;3.00;;;31.60;96.70;;;;;;4882542;29;20115;-83
2021/08/07 10:57:40;;;;;;;11.57;2.97;;;31.70;96.30;;;;;;4882344;29;20048;-79
2021/08/07 11:00:15;;;;;;;14.27;3.72;;;31.50;96.60;;;;;;4882288;29;20123;-80
2021/08/07 11:02:41;;;;;;;6.35;2.90;;;31.40;97.00;;;;;;4882155;29;20053;-79
2021/08/07 11:05:08;;;;;;;7.28;2.53;;;31.60;96.90;;;;;;4882422;29;20033;-79
2021/08/07 11:07:35;;;;;;;9.82;2.58;;;31.60;97.10;;;;;;4882066;29;20097;-81
2021/08/07 11:10:16;;;;;;;9.68;2.40;;;31.60;97.20;;;;;;4882417;29;20040;-79
2021/08/07 11:12:45;;;;;;;5.70;2.53;;;31.60;97.40;;;;;;4882249;29;20367;-84
2021/08/07 11:15:30;;;;;;;9.00;2.67;;;31.70;97.60;;;;;;4882018;29;20671;-79
2021/08/07 11:17:56;;;;;;;6.20;2.67;;;31.60;97.70;;;;;;4882015;29;20033;-80
2021/08/07 11:20:40;;;;;;;11.60;2.30;;;31.70;97.90;;;;;;4882135;29;20045;-81
2021/08/07 11:23:08;;;;;;;9.63;2.97;;;31.70;98.20;;;;;;4881873;29;20466;-79
2021/08/07 11:25:51;;;;;;;11.82;2.80;;;31.80;98.30;;;;;;4882003;29;20484;-79
2021/08/07 11:28:19;;;;;;;7.70;2.67;;;31.80;98.40;;;;;;4882214;29;20064;-80
2021/08/07 11:30:45;;;;;;;9.18;2.50;;;32.00;98.60;;;;;;4881796;29;20033;-79
2021/08/07 11:33:11;;;;;;;7.00;2.45;;;32.00;98.60;;;;;;4881912;29;20043;-80
2021/08/07 11:35:45;;;;;;;12.95;2.70;;;32.00;98.90;;;;;;4881452;29;20474;-79
2021/08/07 11:38:14;;;;;;;9.13;2.75;;;32.10;98.90;;;;;;4882329;29;20037;-78
2021/08/07 11:40:54;;;;;;;10.38;2.58;;;32.20;98.80;;;;;;4882189;29;20085;-78
2021/08/07 11:43:40;;;;;;;6.55;2.58;;;32.40;99.00;;;;;;4881710;29;20041;-78
2021/08/07 11:46:11;;;;;;;11.18;2.40;;;32.40;98.90;;;;;;4881543;29;20029;-78
2021/08/07 11:48:36;;;;;;;6.60;2.47;;;32.50;98.80;;;;;;4881540;29;20570;-78
2021/08/07 11:51:06;;;;;;;9.32;2.47;;;32.50;98.90;;;;;;4881520;29;20041;-82
2021/08/07 11:53:33;;;;;;;17.27;2.90;;;32.50;99.10;;;;;;4881771;29;20120;-79
2021/08/07 11:56:00;;;;;;;12.27;3.33;;;32.50;99.10;;;;;;4881219;29;20124;-79
2021/08/07 11:58:27;;;;;;;8.02;2.38;;;32.50;99.00;;;;;;4883388;29;20041;-78
2021/08/07 12:01:01;;;;;;;7.95;2.25;;;32.40;98.60;;;;;;4880988;29;20029;-80
2021/08/07 12:03:37;;;;;;;9.18;3.20;;;32.40;98.80;;;;;;4881032;29;20513;-79
2021/08/07 12:06:03;;;;;;;10.13;2.33;;;32.30;98.00;;;;;;4881048;29;20032;-78
2021/08/07 12:08:32;;;;;;;12.13;2.42;;;32.30;97.70;;;;;;4881070;29;20406;-78
2021/08/07 12:11:06;;;;;;;11.65;2.33;;;32.20;97.50;;;;;;4881100;29;20141;-77
2021/08/07 12:13:36;;;;;;;7.22;2.30;;;32.10;97.90;;;;;;4881045;29;20447;-79
2021/08/07 12:16:05;;;;;;;11.07;2.83;;;31.90;97.90;;;;;;4880710;29;20037;-77
2021/08/07 12:18:52;;;;;;;11.25;2.70;;;31.80;98.10;;;;;;4879701;29;20483;-79
2021/08/07 12:21:23;;;;;;;5.03;2.28;;;31.80;97.90;;;;;;4880975;29;20493;-79
2021/08/07 12:23:56;;;;;;;8.35;2.90;;;31.70;98.10;;;;;;4880625;29;20049;-78
2021/08/07 12:26:23;;;;;;;10.52;2.38;;;31.60;98.00;;;;;;4880827;29;20093;-78
2021/08/07 12:29:20;;;;;;;8.95;2.30;;;31.50;98.20;;;;;;4880756;29;20116;-78
2021/08/07 12:31:54;;;;;;;11.27;2.38;;;31.50;97.80;;;;;;4880435;29;20140;-79
2021/08/07 12:34:21;;;;;;;10.63;2.55;;;31.50;98.00;;;;;;4880406;29;20481;-79
2021/08/07 12:37:01;;;;;;;8.90;2.63;;;31.50;98.20;;;;;;4880702;29;20045;-79
2021/08/07 12:39:36;;;;;;;6.55;2.80;;;31.30;97.70;;;;;;4880687;29;20043;-79
2021/08/07 12:42:02;;;;;;;7.05;2.50;;;31.10;97.80;;;;;;4894979;29;20048;-77
2021/08/07 12:44:28;;;;;;;16.85;2.78;;;30.90;98.10;;;;;;4880328;29;20045;-79
2021/08/07 12:46:56;;;;;;;10.32;3.30;;;30.90;98.10;;;;;;4894009;29;20088;-79
2021/08/07 12:49:44;;;;;;;6.85;2.42;;;30.80;98.80;;;;;;4880339;29;20037;-79